createdAt,value
2019-04-14T00:02:16.372Z,99206.22
2019-04-14T00:04:44.547Z,99203.14
2019-04-14T00:07:10.794Z,99209.16
2019-04-14T00:09:38.034Z,99204.66
2019-04-14T00:12:07.412Z,99201.58
2019-04-14T00:14:33.660Z,99202.19
2019-04-14T00:17:00.063Z,99191.31
2019-04-14T00:19:26.253Z,99194.25
2019-04-14T00:21:52.430Z,99187.92
2019-04-14T00:24:18.743Z,99189.42
2019-04-14T00:26:46.609Z,99185.27
2019-04-14T00:29:13.127Z,99184.94
2019-04-14T00:31:39.497Z,99190.20
2019-04-14T00:34:13.792Z,99184.67
2019-04-14T00:36:45.954Z,99176.24
2019-04-14T00:39:29.482Z,99174.62
2019-04-14T00:42:00.298Z,99173.52
2019-04-14T00:44:34.064Z,99171.75
2019-04-14T00:47:05.056Z,99167.97
2019-04-14T00:49:31.226Z,99166.16
2019-04-14T00:51:57.422Z,99168.98
2019-04-14T00:54:23.982Z,99172.38
2019-04-14T00:56:50.205Z,99160.49
2019-04-14T00:59:16.377Z,99168.22
2019-04-14T01:01:43.784Z,99171.79
2019-04-14T01:06:55.931Z,99179.44
2019-04-14T01:09:22.123Z,99177.80
2019-04-14T01:11:48.771Z,99170.91
2019-04-14T01:14:15.108Z,99174.35
2019-04-14T01:16:41.280Z,99181.77
2019-04-14T01:19:07.451Z,99168.33
2019-04-14T01:21:34.859Z,99178.58
2019-04-14T01:24:01.209Z,99168.70
2019-04-14T01:26:27.373Z,99166.83
2019-04-14T01:28:54.699Z,99169.19
2019-04-14T01:31:21.134Z,99165.41
2019-04-14T01:33:47.295Z,99165.41
2019-04-14T01:36:14.766Z,99171.75
2019-04-14T01:38:41.164Z,99163.45
2019-04-14T01:41:08.444Z,99159.73
2019-04-14T01:43:34.817Z,99160.94
2019-04-14T01:46:09.639Z,99163.08
2019-04-14T01:48:30.031Z,99161.05
2019-04-14T01:51:01.049Z,99166.94
2019-04-14T01:53:29.292Z,99162.36
2019-04-14T01:55:57.355Z,99165.73
2019-04-14T01:58:31.742Z,99165.69
2019-04-14T02:01:15.022Z,99167.07
2019-04-14T02:03:41.266Z,99156.03
2019-04-14T02:06:07.528Z,99162.48
2019-04-14T02:08:35.066Z,99155.89
2019-04-14T02:11:02.916Z,99162.44
2019-04-14T02:13:29.170Z,99163.56
2019-04-14T02:15:55.350Z,99154.11
2019-04-14T02:18:22.826Z,99166.92
2019-04-14T02:20:49.176Z,99159.56
2019-04-14T02:23:15.284Z,99161.33
2019-04-14T02:25:42.802Z,99161.05
2019-04-14T02:28:09.271Z,99164.50
2019-04-14T02:30:46.038Z,99164.16
2019-04-14T02:33:37.734Z,99153.39
2019-04-14T02:38:34.084Z,99151.53
2019-04-14T02:41:04.286Z,99153.60
2019-04-14T02:43:37.617Z,99144.65
2019-04-14T02:45:50.564Z,99150.48
2019-04-14T02:50:48.218Z,99148.75
2019-04-14T02:53:15.898Z,99153.94
2019-04-14T02:55:42.842Z,99144.31
2019-04-14T02:58:15.691Z,99140.70
2019-04-14T03:00:43.635Z,99142.05
2019-04-14T03:03:10.222Z,99138.95
2019-04-14T03:05:37.219Z,99144.52
2019-04-14T03:08:08.377Z,99142.41
2019-04-14T03:10:33.878Z,99143.61
2019-04-14T03:13:08.302Z,99146.59
2019-04-14T03:15:31.817Z,99148.91
2019-04-14T03:18:18.602Z,99146.42
2019-04-14T03:20:40.192Z,99144.12
2019-04-14T03:23:19.235Z,99150.32
2019-04-14T03:25:45.525Z,99152.92
2019-04-14T03:28:22.887Z,99154.61
2019-04-14T03:34:08.351Z,99159.98
2019-04-14T03:39:00.543Z,99158.20
2019-04-14T03:41:08.656Z,99158.05
2019-04-14T03:43:30.806Z,99160.03
2019-04-14T03:46:04.371Z,99156.88
2019-04-14T03:48:55.541Z,99160.38
2019-04-14T03:50:56.665Z,99162.67
2019-04-14T03:53:27.637Z,99157.61
2019-04-14T03:55:54.395Z,99172.75
2019-04-14T03:58:16.294Z,99169.00
2019-04-14T04:00:42.449Z,99163.23
2019-04-14T04:03:08.667Z,99173.13
2019-04-14T04:05:34.846Z,99171.79
2019-04-14T04:08:01.014Z,99171.55
2019-04-14T04:10:27.331Z,99174.95
2019-04-14T04:12:53.535Z,99176.03
2019-04-14T04:15:19.799Z,99174.81
2019-04-14T04:17:47.927Z,99179.86
2019-04-14T04:20:21.829Z,99187.89
2019-04-14T04:25:35.457Z,99191.34
2019-04-14T04:28:03.815Z,99187.02
2019-04-14T04:30:44.907Z,99187.40
2019-04-14T04:33:13.356Z,99179.47
2019-04-14T04:35:44.288Z,99188.52
2019-04-14T04:38:18.129Z,99191.84
2019-04-14T04:40:44.490Z,99189.62
2019-04-14T04:43:10.766Z,99183.56
2019-04-14T04:45:36.968Z,99196.33
2019-04-14T04:48:04.444Z,99189.17
2019-04-14T04:50:31.015Z,99184.27
2019-04-14T04:52:58.286Z,99185.13
2019-04-14T04:55:24.588Z,99187.20
2019-04-14T04:57:50.767Z,99187.73
2019-04-14T05:00:17.859Z,99189.83
2019-04-14T05:02:44.333Z,99184.81
2019-04-14T05:05:47.764Z,99184.61
2019-04-14T05:08:15.091Z,99193.77
2019-04-14T05:10:43.640Z,99193.56
2019-04-14T05:13:11.783Z,99194.23
2019-04-14T05:15:40.400Z,99200.27
2019-04-14T05:18:07.120Z,99209.66
2019-04-14T05:20:33.586Z,99198.05
2019-04-14T05:22:59.809Z,99198.27
2019-04-14T05:25:25.982Z,99194.41
2019-04-14T05:27:52.210Z,99196.59
2019-04-14T05:30:19.624Z,99192.83
2019-04-14T05:32:45.867Z,99191.96
2019-04-14T05:35:12.176Z,99207.73
2019-04-14T05:37:38.347Z,99198.90
2019-04-14T05:40:05.952Z,99200.48
2019-04-14T05:42:32.131Z,99198.21
2019-04-14T05:44:58.290Z,99206.73
2019-04-14T05:47:24.573Z,99211.45
2019-04-14T05:49:53.494Z,99206.57
2019-04-14T05:52:18.950Z,99211.92
2019-04-14T05:54:45.126Z,99208.86
2019-04-14T05:57:11.359Z,99213.02
2019-04-14T05:59:37.590Z,99206.73
2019-04-14T06:02:04.813Z,99221.36
2019-04-14T06:04:31.190Z,99214.45
2019-04-14T06:06:57.351Z,99216.97
2019-04-14T06:09:23.500Z,99214.13
2019-04-14T06:11:49.692Z,99215.63
2019-04-14T06:14:15.861Z,99217.80
2019-04-14T06:16:42.118Z,99216.74
2019-04-14T06:19:08.330Z,99219.91
2019-04-14T06:21:34.497Z,99228.57
2019-04-14T06:24:00.721Z,99218.70
2019-04-14T06:26:27.016Z,99228.14
2019-04-14T06:28:53.198Z,99223.34
2019-04-14T06:31:24.201Z,99223.97
2019-04-14T06:33:57.999Z,99236.71
2019-04-14T06:36:26.057Z,99235.26
2019-04-14T06:38:54.143Z,99230.98
2019-04-14T06:41:31.893Z,99240.00
2019-04-14T06:43:58.055Z,99228.84
2019-04-14T06:46:24.205Z,99242.40
2019-04-14T06:48:50.516Z,99241.78
2019-04-14T06:51:16.670Z,99242.88
2019-04-14T06:53:42.833Z,99249.98
2019-04-14T06:56:09.045Z,99251.75
2019-04-14T06:58:35.210Z,99253.66
2019-04-14T07:01:01.377Z,99251.63
2019-04-14T07:03:27.569Z,99252.34
2019-04-14T07:05:53.746Z,99252.84
2019-04-14T07:08:19.907Z,99261.87
2019-04-14T07:10:46.108Z,99257.11
2019-04-14T07:13:14.016Z,99257.29
2019-04-14T07:15:40.219Z,99265.03
2019-04-14T07:18:07.255Z,99264.54
2019-04-14T07:20:33.396Z,99267.84
2019-04-14T07:22:59.670Z,99264.58
2019-04-14T07:25:25.961Z,99273.45
2019-04-14T07:27:52.132Z,99273.49
2019-04-14T07:30:20.203Z,99275.73
2019-04-14T07:32:48.309Z,99280.37
2019-04-14T07:35:28.382Z,99291.08
2019-04-14T07:37:59.011Z,99284.17
2019-04-14T07:40:27.103Z,99286.23
2019-04-14T07:43:01.180Z,99297.64
2019-04-14T07:45:47.285Z,99302.81
2019-04-14T07:48:33.574Z,99304.38
2019-04-14T07:51:01.643Z,99312.28
2019-04-14T07:53:29.703Z,99305.02
2019-04-14T07:56:01.019Z,99307.09
2019-04-14T07:58:29.098Z,99307.02
2019-04-14T08:01:08.881Z,99312.19
2019-04-14T08:03:45.619Z,99312.89
2019-04-14T08:06:11.820Z,99307.48
2019-04-14T08:08:37.979Z,99305.53
2019-04-14T08:11:04.151Z,99305.30
2019-04-14T08:13:30.361Z,99299.17
2019-04-14T08:15:56.537Z,99308.58
2019-04-14T08:18:22.714Z,99308.30
2019-04-14T08:20:48.908Z,99310.44
2019-04-14T08:23:15.088Z,99311.22
2019-04-14T08:25:41.367Z,99310.36
2019-04-14T08:28:07.585Z,99308.42
2019-04-14T08:30:33.740Z,99312.45
2019-04-14T08:32:59.916Z,99310.94
2019-04-14T08:35:26.152Z,99313.66
2019-04-14T08:37:52.415Z,99317.34
2019-04-14T08:40:18.571Z,99313.62
2019-04-14T08:43:03.118Z,99311.08
2019-04-14T08:45:31.204Z,99312.25
2019-04-14T08:48:15.621Z,99313.83
2019-04-14T08:50:46.236Z,99309.80
2019-04-14T08:53:30.875Z,99312.91
2019-04-14T08:56:15.276Z,99309.63
2019-04-14T08:58:52.164Z,99311.98
2019-04-14T09:01:22.977Z,99304.89
2019-04-14T09:03:56.870Z,99299.80
2019-04-14T09:06:24.945Z,99308.37
2019-04-14T09:09:11.110Z,99305.55
2019-04-14T09:11:39.170Z,99301.59
2019-04-14T09:14:05.457Z,99293.58
2019-04-14T09:16:31.788Z,99304.11
2019-04-14T09:19:07.493Z,99304.88
2019-04-14T09:21:26.119Z,99308.37
2019-04-14T09:23:52.415Z,99308.75
2019-04-14T09:26:18.573Z,99310.67
2019-04-14T09:28:44.746Z,99311.42
2019-04-14T09:31:11.070Z,99309.73
2019-04-14T09:33:37.226Z,99301.90
2019-04-14T09:36:03.491Z,99307.33
2019-04-14T09:38:29.818Z,99309.87
2019-04-14T09:40:56.007Z,99314.41
2019-04-14T09:43:24.102Z,99308.77
2019-04-14T09:45:52.743Z,99304.82
2019-04-14T09:48:19.017Z,99307.43
2019-04-14T09:50:45.199Z,99306.66
2019-04-14T09:53:11.408Z,99305.00
2019-04-14T09:55:37.562Z,99309.13
2019-04-14T09:58:03.863Z,99313.22
2019-04-14T10:00:31.443Z,99311.56
2019-04-14T10:02:57.624Z,99299.70
2019-04-14T10:05:23.791Z,99306.99
2019-04-14T10:07:50.111Z,99312.30
2019-04-14T10:10:16.383Z,99309.55
2019-04-14T10:12:42.531Z,99305.92
2019-04-14T10:15:08.727Z,99298.59
2019-04-14T10:17:34.885Z,99294.98
2019-04-14T10:20:01.098Z,99293.52
2019-04-14T10:22:33.683Z,99307.60
2019-04-14T10:24:55.355Z,99304.23
2019-04-14T10:27:21.514Z,99310.55
2019-04-14T10:29:47.831Z,99303.61
2019-04-14T10:32:14.019Z,99300.16
2019-04-14T10:34:40.192Z,99308.33
2019-04-14T10:37:06.405Z,99295.78
2019-04-14T10:39:32.589Z,99294.91
2019-04-14T10:41:58.766Z,99292.37
2019-04-14T10:44:25.183Z,99291.80
2019-04-14T10:46:51.357Z,99311.42
2019-04-14T10:49:17.521Z,99311.86
2019-04-14T10:51:43.822Z,99300.53
2019-04-14T10:54:10.101Z,99298.98
2019-04-14T10:56:36.256Z,99304.38
2019-04-14T10:59:02.449Z,99301.86
2019-04-14T11:01:28.726Z,99306.95
2019-04-14T11:03:54.899Z,99304.27
2019-04-14T11:06:25.525Z,99310.66
2019-04-14T11:08:53.845Z,99311.11
2019-04-14T11:11:20.019Z,99315.81
2019-04-14T11:13:46.246Z,99314.67
2019-04-14T11:16:12.429Z,99319.53
2019-04-14T11:18:38.696Z,99311.08
2019-04-14T11:21:04.902Z,99320.24
2019-04-14T11:23:31.080Z,99316.28
2019-04-14T11:25:57.339Z,99322.00
2019-04-14T11:28:23.566Z,99325.09
2019-04-14T11:30:50.432Z,99330.66
2019-04-14T11:33:21.021Z,99321.70
2019-04-14T11:35:52.215Z,99325.10
2019-04-14T11:38:20.342Z,99322.45
2019-04-14T11:40:48.402Z,99328.93
2019-04-14T11:43:14.616Z,99326.45
2019-04-14T11:45:40.872Z,99326.86
2019-04-14T11:48:07.031Z,99334.93
2019-04-14T11:50:33.255Z,99322.02
2019-04-14T11:52:59.418Z,99324.47
2019-04-14T11:55:25.711Z,99323.11
2019-04-14T11:57:51.991Z,99318.08
2019-04-14T12:00:20.079Z,99320.71
2019-04-14T12:03:05.150Z,99322.75
2019-04-14T12:05:48.050Z,99318.55
2019-04-14T12:08:24.913Z,99317.66
2019-04-14T12:10:51.071Z,99307.00
2019-04-14T12:13:17.253Z,99310.56
2019-04-14T12:15:43.564Z,99311.72
2019-04-14T12:18:09.725Z,99309.31
2019-04-14T12:20:35.903Z,99303.09
2019-04-14T12:23:02.105Z,99302.86
2019-04-14T12:25:28.286Z,99304.73
2019-04-14T12:27:55.731Z,99296.57
2019-04-14T12:30:22.413Z,99297.55
2019-04-14T12:32:49.375Z,99294.28
2019-04-14T12:35:15.651Z,99298.47
2019-04-14T12:37:41.963Z,99307.42
2019-04-14T12:40:08.742Z,99309.17
2019-04-14T12:42:45.790Z,99305.97
2019-04-14T12:45:30.572Z,99296.02
2019-04-14T12:48:01.208Z,99305.84
2019-04-14T12:50:31.984Z,99297.56
2019-04-14T12:52:58.548Z,99309.49
2019-04-14T12:55:24.952Z,99305.50
2019-04-14T12:57:53.015Z,99314.34
2019-04-14T13:00:24.280Z,99312.16
2019-04-14T13:02:53.945Z,99309.76
2019-04-14T13:05:20.120Z,99317.06
2019-04-14T13:07:46.281Z,99310.64
2019-04-14T13:10:13.384Z,99306.26
2019-04-14T13:12:39.567Z,99307.23
2019-04-14T13:15:06.656Z,99302.23
2019-04-14T13:17:32.874Z,99306.14
2019-04-14T13:19:59.138Z,99304.67
2019-04-14T13:22:33.702Z,99306.98
2019-04-14T13:24:53.398Z,99306.53
2019-04-14T13:27:19.701Z,99304.89
2019-04-14T13:29:45.902Z,99305.56
2019-04-14T13:32:12.188Z,99309.88
2019-04-14T13:34:38.373Z,99311.00
2019-04-14T13:37:04.647Z,99312.17
2019-04-14T13:39:30.840Z,99311.10
2019-04-14T13:41:57.052Z,99314.13
2019-04-14T13:44:23.341Z,99315.55
2019-04-14T13:46:49.541Z,99319.92
2019-04-14T13:49:15.724Z,99332.01
2019-04-14T13:51:42.009Z,99334.89
2019-04-14T13:54:08.207Z,99331.70
2019-04-14T13:56:34.378Z,99325.77
2019-04-14T13:59:00.563Z,99337.06
2019-04-14T14:01:26.787Z,99329.67
2019-04-14T14:03:53.069Z,99335.70
2019-04-14T14:06:19.364Z,99332.45
2019-04-14T14:08:45.550Z,99335.74
2019-04-14T14:11:28.411Z,99341.84
2019-04-14T14:13:59.360Z,99343.41
2019-04-14T14:16:30.232Z,99346.02
2019-04-14T14:18:58.306Z,99350.92
2019-04-14T14:21:26.435Z,99340.56
2019-04-14T14:24:11.093Z,99347.52
2019-04-14T14:26:39.224Z,99355.51
2019-04-14T14:29:05.393Z,99352.27
2019-04-14T14:31:31.672Z,99344.73
2019-04-14T14:33:57.882Z,99341.46
2019-04-14T14:36:24.161Z,99340.28
2019-04-14T14:38:50.340Z,99341.48
2019-04-14T14:41:17.203Z,99337.14
2019-04-14T14:43:43.474Z,99343.70
2019-04-14T14:46:23.405Z,99342.50
2019-04-14T14:48:51.499Z,99338.16
2019-04-14T14:51:19.561Z,99352.17
2019-04-14T14:53:45.798Z,99347.77
2019-04-14T14:56:13.883Z,99345.43
2019-04-14T14:58:40.040Z,99347.26
2019-04-14T15:01:06.671Z,99351.47
2019-04-14T15:03:32.831Z,99352.77
2019-04-14T15:05:58.984Z,99351.00
2019-04-14T15:08:25.198Z,99353.97
2019-04-14T15:10:51.369Z,99353.57
2019-04-14T15:13:17.656Z,99348.51
2019-04-14T15:15:43.879Z,99353.71
2019-04-14T15:18:10.054Z,99361.00
2019-04-14T15:20:36.239Z,99356.20
2019-04-14T15:23:02.949Z,99361.22
2019-04-14T15:25:29.110Z,99356.37
2019-04-14T15:27:55.404Z,99358.78
2019-04-14T15:30:23.385Z,99351.48
2019-04-14T15:32:49.547Z,99357.88
2019-04-14T15:35:16.045Z,99357.16
2019-04-14T15:37:42.339Z,99362.01
2019-04-14T15:40:08.830Z,99357.38
2019-04-14T15:42:35.002Z,99356.83
2019-04-14T15:45:01.364Z,99351.07
2019-04-14T15:47:27.571Z,99361.54
2019-04-14T15:49:53.764Z,99356.30
2019-04-14T15:52:20.080Z,99363.43
2019-04-14T15:54:59.900Z,99355.29
2019-04-14T15:57:44.735Z,99352.83
2019-04-14T16:00:22.249Z,99359.08
2019-04-14T16:02:59.056Z,99371.92
2019-04-14T16:05:27.144Z,99361.20
2019-04-14T16:08:04.379Z,99369.27
2019-04-14T16:10:47.282Z,99365.33
2019-04-14T16:13:33.546Z,99364.38
2019-04-14T16:16:18.156Z,99361.16
2019-04-14T16:18:52.317Z,99368.72
2019-04-14T16:21:18.591Z,99372.66
2019-04-14T16:23:50.885Z,99367.28
2019-04-14T16:26:17.572Z,99380.19
2019-04-14T16:28:51.276Z,99373.83
2019-04-14T16:31:35.787Z,99375.40
2019-04-14T16:34:12.650Z,99382.77
2019-04-14T16:36:39.277Z,99384.45
2019-04-14T16:39:06.031Z,99381.48
2019-04-14T16:41:32.215Z,99385.02
2019-04-14T16:43:58.542Z,99387.00
2019-04-14T16:46:24.815Z,99388.56
2019-04-14T16:48:50.982Z,99404.80
2019-04-14T16:51:19.086Z,99393.63
2019-04-14T16:53:47.044Z,99389.81
2019-04-14T16:56:15.109Z,99388.96
2019-04-14T16:58:43.236Z,99390.60
2019-04-14T17:01:12.761Z,99390.04
2019-04-14T17:03:38.942Z,99389.77
2019-04-14T17:06:05.168Z,99396.51
2019-04-14T17:08:31.365Z,99389.10
2019-04-14T17:10:57.507Z,99392.64
2019-04-14T17:13:25.631Z,99391.85
2019-04-14T17:16:09.050Z,99394.09
2019-04-14T17:18:44.565Z,99400.84
2019-04-14T17:21:29.240Z,99401.14
2019-04-14T17:24:10.626Z,99408.25
2019-04-14T17:26:33.260Z,99414.61
2019-04-14T17:29:01.343Z,99413.19
2019-04-14T17:31:41.133Z,99407.55
2019-04-14T17:37:02.663Z,99422.83
2019-04-14T17:39:48.718Z,99418.31
2019-04-14T17:42:21.566Z,99425.88
2019-04-14T17:44:55.525Z,99435.97
2019-04-14T17:47:42.827Z,99436.42
2019-04-14T17:50:19.664Z,99433.31
2019-04-14T17:53:28.142Z,99433.97
2019-04-14T17:56:03.328Z,99433.43
2019-04-14T17:59:18.689Z,99443.07
2019-04-14T18:01:18.167Z,99440.08
2019-04-14T18:04:04.436Z,99442.50
2019-04-14T18:06:41.243Z,99445.13
2019-04-14T18:09:24.782Z,99452.70
2019-04-14T18:12:04.668Z,99448.28
2019-04-14T18:14:32.777Z,99462.48
2019-04-14T18:17:03.484Z,99461.45
2019-04-14T18:19:31.551Z,99458.25
2019-04-14T18:21:57.741Z,99463.22
2019-04-14T18:24:23.966Z,99461.88
2019-04-14T18:26:52.611Z,99455.74
2019-04-14T18:29:29.349Z,99459.72
2019-04-14T18:32:00.251Z,99461.89
2019-04-14T18:34:37.127Z,99470.95
2019-04-14T18:37:08.560Z,99477.13
2019-04-14T18:39:49.874Z,99478.38
2019-04-14T18:42:21.095Z,99482.36
2019-04-14T18:45:05.507Z,99488.72
2019-04-14T18:47:50.019Z,99486.64
2019-04-14T18:50:33.544Z,99480.41
2019-04-14T18:53:13.609Z,99483.63
2019-04-14T18:55:53.450Z,99484.99
2019-04-14T18:58:33.577Z,99484.96
2019-04-14T19:01:13.443Z,99483.52
2019-04-14T19:03:39.713Z,99489.75
2019-04-14T19:06:05.893Z,99492.31
2019-04-14T19:08:32.200Z,99489.91
2019-04-14T19:11:15.360Z,99486.27
2019-04-14T19:13:47.062Z,99483.98
2019-04-14T19:16:20.968Z,99488.33
2019-04-14T19:18:49.054Z,99485.73
2019-04-14T19:21:17.126Z,99483.39
2019-04-14T19:23:46.211Z,99490.41
2019-04-14T19:26:11.499Z,99502.43
2019-04-14T19:28:37.678Z,99502.80
2019-04-14T19:31:03.851Z,99512.55
2019-04-14T19:33:30.064Z,99513.16
2019-04-14T19:35:56.319Z,99515.14
2019-04-14T19:38:22.486Z,99513.27
2019-04-14T19:40:48.695Z,99518.94
2019-04-14T19:43:23.516Z,99521.37
2019-04-14T19:45:43.528Z,99522.32
2019-04-14T19:48:09.799Z,99520.77
2019-04-14T19:50:36.085Z,99529.94
2019-04-14T19:53:02.256Z,99532.97
2019-04-14T19:55:28.478Z,99531.84
2019-04-14T19:57:54.760Z,99532.52
2019-04-14T20:00:21.039Z,99538.86
2019-04-14T20:02:47.259Z,99547.02
2019-04-14T20:05:13.412Z,99541.58
2019-04-14T20:07:39.671Z,99544.55
2019-04-14T20:10:07.652Z,99543.94
2019-04-14T20:12:33.845Z,99545.54
2019-04-14T20:15:01.982Z,99553.77
2019-04-14T20:17:39.123Z,99559.92
2019-04-14T20:20:13.635Z,99569.77
2019-04-14T20:22:56.519Z,99561.58
2019-04-14T20:25:41.325Z,99564.81
2019-04-14T20:28:09.427Z,99556.95
2019-04-14T20:30:42.014Z,99571.17
2019-04-14T20:33:14.109Z,99576.06
2019-04-14T20:35:40.344Z,99562.92
2019-04-14T20:38:06.600Z,99577.42
2019-04-14T20:40:32.864Z,99569.34
2019-04-14T20:42:59.056Z,99573.31
2019-04-14T20:45:25.228Z,99580.09
2019-04-14T20:47:51.488Z,99581.59
2019-04-14T20:50:17.798Z,99580.54
2019-04-14T20:52:47.001Z,99576.42
2019-04-14T20:55:13.280Z,99577.73
2019-04-14T20:57:39.517Z,99580.49
2019-04-14T21:00:06.947Z,99574.37
2019-04-14T21:02:36.963Z,99585.62
2019-04-14T21:05:23.391Z,99583.42
2019-04-14T21:07:54.172Z,99581.72
2019-04-14T21:10:24.765Z,99580.19
2019-04-14T21:12:52.874Z,99577.98
2019-04-14T21:15:23.727Z,99573.79
2019-04-14T21:18:09.651Z,99577.80
2019-04-14T21:20:43.478Z,99581.48
2019-04-14T21:23:28.380Z,99579.78
2019-04-14T21:26:00.886Z,99583.66
2019-04-14T21:28:29.324Z,99580.89
2019-04-14T21:31:00.202Z,99580.50
2019-04-14T21:33:40.020Z,99580.19
2019-04-14T21:36:10.884Z,99577.69
2019-04-14T21:38:39.203Z,99578.55
2019-04-14T21:41:07.284Z,99574.52
2019-04-14T21:43:33.494Z,99575.63
2019-04-14T21:45:59.678Z,99576.83
2019-04-14T21:48:25.965Z,99577.34
2019-04-14T21:50:52.156Z,99581.20
2019-04-14T21:53:18.344Z,99578.32
2019-04-14T21:55:44.605Z,99581.03
2019-04-14T21:58:18.511Z,99586.17
2019-04-14T22:01:05.378Z,99584.47
2019-04-14T22:03:36.131Z,99587.07
2019-04-14T22:06:09.775Z,99589.72
2019-04-14T22:08:43.463Z,99588.87
2019-04-14T22:11:17.324Z,99593.12
2019-04-14T22:13:43.603Z,99591.33
2019-04-14T22:16:09.912Z,99588.48
2019-04-14T22:18:36.092Z,99589.55
2019-04-14T22:21:02.360Z,99586.94
2019-04-14T22:23:28.649Z,99590.20
2019-04-14T22:25:54.800Z,99591.08
2019-04-14T22:28:20.971Z,99590.66
2019-04-14T22:30:47.260Z,99592.14
2019-04-14T22:33:13.537Z,99586.48
2019-04-14T22:35:39.718Z,99584.25
2019-04-14T22:38:05.904Z,99579.13
2019-04-14T22:40:32.081Z,99584.00
2019-04-14T22:42:58.236Z,99582.00
2019-04-14T22:45:24.434Z,99576.19
2019-04-14T22:47:50.619Z,99575.33
2019-04-14T22:50:16.883Z,99571.88
2019-04-14T22:52:43.097Z,99568.45
2019-04-14T22:55:09.371Z,99575.75
2019-04-14T22:57:35.516Z,99576.02
2019-04-14T23:00:03.143Z,99567.75
2019-04-14T23:02:40.059Z,99564.30
2019-04-14T23:05:14.243Z,99564.50
2019-04-14T23:07:58.943Z,99558.45
2019-04-14T23:10:38.809Z,99564.31
2019-04-14T23:13:23.750Z,99559.99
2019-04-14T23:16:08.205Z,99560.55
2019-04-14T23:18:52.644Z,99564.14
2019-04-14T23:21:29.455Z,99564.11
2019-04-14T23:24:09.441Z,99560.55
2019-04-14T23:26:35.727Z,99552.84
2019-04-14T23:29:02.050Z,99553.45
2019-04-14T23:31:28.293Z,99555.86
2019-04-14T23:33:54.591Z,99553.70
2019-04-14T23:36:20.757Z,99554.62
2019-04-14T23:38:46.908Z,99552.28
2019-04-14T23:41:13.118Z,99557.93
2019-04-14T23:43:39.294Z,99553.36
2019-04-14T23:46:05.554Z,99553.63
2019-04-14T23:48:31.768Z,99546.84
2019-04-14T23:50:57.924Z,99547.28
2019-04-14T23:53:24.165Z,99547.47
2019-04-14T23:55:50.969Z,99550.99
2019-04-14T23:58:17.154Z,99550.51
